Strona główna
METAR-TAF:

METAR-TAF

Lotnisko :

Angers, Francja

Szerokość geograficzna: 47-33-37N, Długość geograficzna: 000-18-44W, wysokość: 59 m

Aktualna obserwacja pogody

Raport powstał 24 minut temu, godzina 13:00 UTC
Wiatr 6 kt od południe, zmienny między wschodnio-południowy wschód i południe
Temperatura 31°C
Wilgotność 27%
Ciśnienie 1017 hPa
Widzialność 10 km lub więcej
Mało chmury na wysokości 1500 ft
Przerywane chmury na wysokości 22000 ft

METAR: LFJR 241300Z AUTO 17006KT 120V190 9999 FEW015 BKN220 31/10 Q1017

czas: 15:24 (13:24 UTC)


TAF: brakujący

Obserwacja i prognoza pogody dla ponad 4000 lotnisk (raport METAR i TAF).

Dostępne stacje oznaczono żółtymi i czerwonymi punktami na mapie.

Najedź kursorem aby zobaczyć nazwę stacji.

Kliknij aby zobaczyć obserwacje i prognozy pogody.

Aby zmienić mapę: kliknij na zielony przycisk z czarnym krzyżykiem, aby powiększyć; na zielony przycisk z myślnikiem, aby pomniejszyć; na zielone strzałki, aby przejść do map sąsiednich.


METAR-TAF: